Wichita Mid Continent Airport
KICT : now visible

Airfield :











YOU CAN JOIN US ON...

 
LOGIN :

Register | Disclaimer

   EN    FR    IT 

 









Legend :    VFR   Marginal VFR   IFR   Intensive IFR   Very Intensive IFR
Visi :
Ceiling :
>= 8 km
>= 3000ft
5 to 8 km
1000 to 3000 ft
1500m to 5 km
500 to 1000 ft
800 to 1500m
200 to 500 ft
< 800m
< 200 ft
Symbols :   Thunderstorms  Fog  Heavy snow  Heavy precipitations  Wind > 20 kt







- Airport Elevation : 1333 ft
- IATA code : ICT


KICT - Wichita Mid Continent

CURRENT METAR :
  • 210519Z 17013KT 10SM BKN013 BKN049 OVC065 23/21 A2993 RMK AO2 T02330211

EXPIRED METARs :
  • 210453Z 18013KT 10SM SCT015 BKN048 OVC065 24/21 A2993 RMK AO2 SLP123 T02390211
  • 210411Z 18014G23KT 10SM BKN016 24/21 A2992 RMK AO2 T02390211
  • 210353Z 17016G23KT 10SM BKN014 BKN180 24/21 A2992 RMK AO2 SLP119 T02390211
  • 210253Z 16013KT 10SM SCT060 SCT180 24/21 A2991 RMK AO2 SLP116 T02390211 53004

TAF KICT
Valid from the 21 at 04:00 until the 22 at 00:00 UTC


210400Z 2104/2124 17016KT P6SM BKN015 BKN150
FM211000 18013KT P6SM VCSH OVC020
FM211800 19020G28KT 6SM -SHRA BR OVC025
No reported NOTAMs for that airfield.



MET'MAP, your aeronautical weather chart ! - Copyright ORBIFLY December 2007 - Disclaimer

ORBIFLY MET'MAP TEAM :

Programming & Development : Alexandra Zaïnal
Concept & Development : Baudouin d'Aumeries
Co-Development & Prog : Marc-Olivier Méhu
Technical & hardware support : Manuel Goepfert

Contact : metmap@orbifly.com




SOURCES & CREDITS :

   NOAA       Earth
Advisory